createdAt,value
2022-08-22T00:00:16.822Z,50.23
2022-08-22T00:01:15.340Z,50.23
2022-08-22T00:02:15.306Z,50.23
2022-08-22T00:02:46.653Z,51.17
2022-08-22T00:03:04.494Z,51.12
2022-08-22T00:03:07.259Z,51.00
2022-08-22T00:03:07.478Z,50.38
2022-08-22T00:03:09.412Z,51.16
2022-08-22T00:03:12.014Z,51.02
2022-08-22T00:03:12.194Z,51.10
2022-08-22T00:03:12.457Z,51.10
2022-08-22T00:03:12.822Z,50.79
2022-08-22T00:04:21.537Z,50.25
2022-08-22T00:05:15.235Z,50.27
2022-08-22T00:06:15.204Z,50.25
2022-08-22T00:07:16.164Z,50.25
2022-08-22T00:08:15.193Z,50.28
2022-08-22T00:09:15.186Z,50.25
2022-08-22T00:10:25.440Z,50.25
2022-08-22T00:11:15.218Z,50.26
2022-08-22T00:12:15.186Z,50.24
2022-08-22T00:13:15.273Z,50.22
2022-08-22T00:14:15.226Z,50.21
2022-08-22T00:15:43.159Z,50.19
2022-08-22T00:16:16.676Z,50.17
2022-08-22T00:17:15.413Z,50.18
2022-08-22T00:18:15.098Z,50.18
2022-08-22T00:19:15.057Z,50.17
2022-08-22T00:20:15.067Z,50.18
2022-08-22T00:21:21.309Z,50.20
2022-08-22T00:22:14.995Z,50.22
2022-08-22T00:23:15.085Z,50.24
2022-08-22T00:24:14.985Z,50.24
2022-08-22T00:25:24.581Z,50.27
2022-08-22T00:26:16.477Z,50.27
2022-08-22T00:27:21.232Z,50.26
2022-08-22T00:28:14.944Z,50.26
2022-08-22T00:29:14.917Z,50.28
2022-08-22T00:30:14.955Z,50.30
2022-08-22T00:31:14.895Z,50.32
2022-08-22T00:32:14.889Z,50.33
2022-08-22T00:33:21.156Z,50.35
2022-08-22T00:34:14.871Z,50.35
2022-08-22T00:35:15.817Z,50.37
2022-08-22T00:36:14.903Z,50.39
2022-08-22T00:37:14.907Z,50.39
2022-08-22T00:38:21.083Z,50.41
2022-08-22T00:39:14.777Z,50.41
2022-08-22T00:40:14.852Z,50.43
2022-08-22T00:41:14.759Z,50.42
2022-08-22T00:42:15.963Z,50.41
2022-08-22T00:43:16.255Z,50.44
2022-08-22T00:44:21.019Z,50.46
2022-08-22T00:45:14.761Z,50.44
2022-08-22T00:46:14.710Z,50.46
2022-08-22T00:47:14.700Z,50.49
2022-08-22T00:48:15.017Z,50.50
2022-08-22T00:49:14.707Z,50.52
2022-08-22T00:50:20.993Z,50.55
2022-08-22T00:51:14.797Z,50.56
2022-08-22T00:52:14.607Z,50.57
2022-08-22T00:53:14.921Z,50.59
2022-08-22T00:54:16.858Z,50.61
2022-08-22T00:55:20.895Z,50.62
2022-08-22T00:56:14.629Z,50.64
2022-08-22T00:57:14.847Z,50.67
2022-08-22T00:58:14.540Z,50.67
2022-08-22T00:59:22.836Z,50.67
2022-08-22T01:00:22.611Z,50.68
2022-08-22T01:01:14.588Z,50.69
2022-08-22T01:02:14.521Z,50.67
2022-08-22T01:03:14.609Z,50.67
2022-08-22T01:04:14.474Z,50.66
2022-08-22T01:05:14.509Z,50.66
2022-08-22T01:06:21.195Z,50.64
2022-08-22T01:07:14.498Z,50.62
2022-08-22T01:08:14.490Z,50.63
2022-08-22T01:09:14.412Z,50.64
2022-08-22T01:10:14.377Z,50.66
2022-08-22T01:11:21.536Z,50.66
2022-08-22T01:12:14.359Z,50.66
2022-08-22T01:13:16.228Z,50.68
2022-08-22T01:14:14.353Z,50.68
2022-08-22T01:15:14.345Z,50.69
2022-08-22T01:16:20.960Z,50.70
2022-08-22T01:17:14.375Z,50.72
2022-08-22T01:18:14.388Z,50.75
2022-08-22T01:19:14.282Z,50.76
2022-08-22T01:20:15.407Z,50.77
2022-08-22T01:21:14.251Z,50.80
2022-08-22T01:22:20.550Z,50.77
2022-08-22T01:23:14.256Z,50.77
2022-08-22T01:24:14.265Z,50.75
2022-08-22T01:25:14.207Z,50.76
2022-08-22T01:26:14.227Z,50.74
2022-08-22T01:27:14.215Z,50.76
2022-08-22T01:28:20.533Z,50.75
2022-08-22T01:29:14.437Z,50.76
2022-08-22T01:30:14.179Z,50.74
2022-08-22T01:31:14.184Z,50.76
2022-08-22T01:32:14.140Z,50.76
2022-08-22T01:33:21.776Z,50.79
2022-08-22T01:34:14.099Z,50.80
2022-08-22T01:35:14.137Z,50.83
2022-08-22T01:36:14.120Z,50.85
2022-08-22T01:37:14.115Z,50.87
2022-08-22T01:38:14.043Z,50.86
2022-08-22T01:39:20.791Z,50.89
2022-08-22T01:40:14.115Z,50.89
2022-08-22T01:41:14.005Z,50.90
2022-08-22T01:42:15.162Z,50.89
2022-08-22T01:43:14.001Z,50.89
2022-08-22T01:44:14.015Z,50.88
2022-08-22T01:45:21.300Z,50.89
2022-08-22T01:46:14.041Z,50.88
2022-08-22T01:47:15.414Z,50.90
2022-08-22T01:48:13.952Z,50.91
2022-08-22T01:49:13.889Z,50.91
2022-08-22T01:50:13.883Z,50.91
2022-08-22T01:51:20.278Z,50.90
2022-08-22T01:52:13.839Z,50.90
2022-08-22T01:53:13.823Z,50.91
2022-08-22T01:54:13.876Z,50.91
2022-08-22T01:55:14.803Z,50.92
2022-08-22T01:56:20.103Z,50.93
2022-08-22T01:57:13.802Z,50.93
2022-08-22T01:58:13.846Z,50.92
2022-08-22T01:59:13.763Z,50.90
2022-08-22T02:00:13.808Z,50.89
2022-08-22T02:01:20.076Z,50.88
2022-08-22T02:02:13.712Z,50.89
2022-08-22T02:03:13.746Z,50.89
2022-08-22T02:04:13.695Z,50.90
2022-08-22T02:05:13.706Z,50.91
2022-08-22T02:06:14.601Z,50.90
2022-08-22T02:07:19.949Z,50.89
2022-08-22T02:08:13.638Z,50.88
2022-08-22T02:09:13.674Z,50.88
2022-08-22T02:10:14.552Z,50.87
2022-08-22T02:11:13.600Z,50.87
2022-08-22T02:12:13.831Z,50.85
2022-08-22T02:13:21.427Z,50.83
2022-08-22T02:14:13.568Z,50.83
2022-08-22T02:15:13.567Z,50.84
2022-08-22T02:16:13.529Z,50.85
2022-08-22T02:17:13.712Z,50.84
2022-08-22T02:18:13.520Z,50.86
2022-08-22T02:19:20.778Z,50.85
2022-08-22T02:20:13.708Z,50.88
2022-08-22T02:21:13.460Z,50.87
2022-08-22T02:22:13.460Z,50.89
2022-08-22T02:23:13.464Z,50.91
2022-08-22T02:24:15.877Z,50.90
2022-08-22T02:25:13.432Z,50.91
2022-08-22T02:26:13.465Z,50.91
2022-08-22T02:27:13.400Z,50.91
2022-08-22T02:28:13.391Z,50.94
2022-08-22T02:29:13.449Z,50.94
2022-08-22T02:30:20.269Z,50.93
2022-08-22T02:31:16.942Z,50.95
2022-08-22T02:32:13.332Z,50.95
2022-08-22T02:33:13.600Z,50.92
2022-08-22T02:34:13.302Z,50.92
2022-08-22T02:35:13.350Z,50.93
2022-08-22T02:36:19.565Z,50.92
2022-08-22T02:37:14.551Z,50.93
2022-08-22T02:38:13.295Z,50.95
2022-08-22T02:39:13.573Z,50.95
2022-08-22T02:40:13.574Z,50.94
2022-08-22T02:41:13.541Z,50.95
2022-08-22T02:42:19.498Z,50.93
2022-08-22T02:43:13.472Z,50.92
2022-08-22T02:44:14.125Z,50.92
2022-08-22T02:45:13.502Z,50.93
2022-08-22T02:46:14.433Z,50.93
2022-08-22T02:47:19.463Z,50.94
2022-08-22T02:48:15.692Z,50.94
2022-08-22T02:49:13.158Z,50.93
2022-08-22T02:50:13.238Z,50.94
2022-08-22T02:51:13.139Z,50.94
2022-08-22T02:52:13.424Z,50.94
2022-08-22T02:53:19.383Z,50.95
2022-08-22T02:54:13.043Z,50.94
2022-08-22T02:55:13.042Z,50.96
2022-08-22T02:56:13.260Z,50.95
2022-08-22T02:57:14.279Z,50.97
2022-08-22T02:58:19.561Z,50.98
2022-08-22T02:59:13.009Z,50.98
2022-08-22T03:00:31.384Z,50.96
2022-08-22T03:01:14.784Z,50.96
2022-08-22T03:02:12.941Z,50.96
2022-08-22T03:03:12.943Z,50.94
2022-08-22T03:04:19.300Z,50.94
2022-08-22T03:05:12.947Z,50.94
2022-08-22T03:06:12.903Z,50.92
2022-08-22T03:07:12.875Z,50.92
2022-08-22T03:08:12.967Z,50.91
2022-08-22T03:09:12.845Z,50.91
2022-08-22T03:10:20.313Z,50.89
2022-08-22T03:11:13.488Z,50.89
2022-08-22T03:12:12.838Z,50.85
2022-08-22T03:13:12.793Z,50.84
2022-08-22T03:14:12.843Z,50.82
2022-08-22T03:15:12.829Z,50.79
2022-08-22T03:16:19.055Z,50.75
2022-08-22T03:17:12.753Z,50.72
2022-08-22T03:18:12.720Z,50.70
2022-08-22T03:19:14.963Z,50.65
2022-08-22T03:20:14.681Z,50.63
2022-08-22T03:21:12.704Z,50.60
2022-08-22T03:22:19.342Z,50.59
2022-08-22T03:23:12.668Z,50.58
2022-08-22T03:24:12.795Z,50.57
2022-08-22T03:25:12.716Z,50.55
2022-08-22T03:26:12.946Z,50.54
2022-08-22T03:27:12.615Z,50.52
2022-08-22T03:28:18.964Z,50.51
2022-08-22T03:29:12.698Z,50.50
2022-08-22T03:30:12.607Z,50.48
2022-08-22T03:31:12.559Z,50.46
2022-08-22T03:32:12.542Z,50.45
2022-08-22T03:33:12.832Z,50.45
2022-08-22T03:34:18.784Z,50.44
2022-08-22T03:35:12.803Z,50.43
2022-08-22T03:36:12.522Z,50.42
2022-08-22T03:37:12.791Z,50.41
2022-08-22T03:38:12.792Z,50.40
2022-08-22T03:40:31.806Z,49.89
2022-08-22T03:41:36.327Z,50.39
2022-08-22T03:43:05.234Z,50.39
2022-08-22T03:44:10.052Z,50.38
2022-08-22T03:44:27.932Z,50.39
2022-08-22T03:45:51.960Z,50.39
2022-08-22T03:47:02.919Z,50.37
2022-08-22T03:47:52.915Z,50.39
2022-08-22T03:48:33.917Z,50.37
2022-08-22T03:50:08.047Z,50.38
2022-08-22T03:50:26.950Z,50.36
2022-08-22T03:52:04.114Z,50.35
2022-08-22T03:52:51.744Z,50.36
2022-08-22T03:53:27.854Z,50.36
2022-08-22T03:55:02.950Z,50.33
2022-08-22T03:55:51.890Z,50.32
2022-08-22T03:56:30.888Z,50.31
2022-08-22T03:58:05.099Z,50.31
2022-08-22T03:58:51.924Z,50.30
2022-08-22T03:59:30.699Z,50.32
2022-08-22T04:00:39.239Z,50.32
2022-08-22T04:02:04.139Z,50.32
2022-08-22T04:02:43.318Z,50.34
2022-08-22T04:04:05.459Z,50.32
2022-08-22T04:04:26.720Z,50.32
2022-08-22T04:05:27.513Z,50.31
2022-08-22T04:06:26.733Z,50.30
2022-08-22T04:07:31.535Z,50.29
2022-08-22T04:08:29.030Z,50.27
2022-08-22T04:09:33.762Z,50.26
2022-08-22T04:10:29.454Z,50.26
2022-08-22T04:11:26.671Z,50.28
2022-08-22T04:12:26.622Z,50.27
2022-08-22T04:13:26.624Z,50.27
2022-08-22T04:14:26.625Z,50.25
2022-08-22T04:15:34.972Z,50.25
2022-08-22T04:16:27.873Z,50.21
2022-08-22T04:17:26.855Z,50.21
2022-08-22T04:18:27.536Z,50.19
2022-08-22T04:19:26.524Z,50.19
2022-08-22T04:20:33.243Z,50.17
2022-08-22T04:21:27.224Z,50.17
2022-08-22T04:22:26.487Z,50.15
2022-08-22T04:23:26.504Z,50.15
2022-08-22T04:24:26.479Z,50.14
2022-08-22T04:25:27.089Z,50.14
2022-08-22T04:26:32.808Z,50.13
2022-08-22T04:27:26.445Z,50.12
2022-08-22T04:28:27.207Z,50.08
2022-08-22T04:29:27.491Z,50.07
2022-08-22T04:30:26.422Z,50.06
2022-08-22T04:31:32.749Z,50.05
2022-08-22T04:32:26.351Z,50.03
2022-08-22T04:33:26.381Z,50.02
2022-08-22T04:34:26.350Z,50.02
2022-08-22T04:35:26.362Z,50.00
2022-08-22T04:36:28.441Z,49.98
2022-08-22T04:37:32.641Z,49.97
2022-08-22T04:38:26.383Z,49.97
2022-08-22T04:39:26.285Z,49.95
2022-08-22T04:40:26.264Z,49.94
2022-08-22T04:41:26.268Z,49.94
2022-08-22T04:42:33.410Z,49.93
2022-08-22T04:43:26.226Z,49.93
2022-08-22T04:44:26.284Z,49.92
2022-08-22T04:45:26.217Z,49.90
2022-08-22T04:46:26.199Z,49.89
2022-08-22T04:47:34.789Z,49.88
2022-08-22T04:48:26.192Z,49.87
2022-08-22T04:49:26.161Z,49.84
2022-08-22T04:50:26.143Z,49.83
2022-08-22T04:51:26.154Z,49.82
2022-08-22T04:52:34.585Z,49.81
2022-08-22T04:53:26.094Z,49.78
2022-08-22T04:54:26.313Z,49.75
2022-08-22T04:55:26.065Z,49.74
2022-08-22T04:56:26.071Z,49.72
2022-08-22T04:57:32.613Z,49.72
2022-08-22T04:58:26.025Z,49.72
2022-08-22T04:59:26.106Z,49.69
2022-08-22T05:00:26.001Z,49.67
2022-08-22T05:01:26.132Z,49.67
2022-08-22T05:02:32.261Z,49.65
2022-08-22T05:03:32.262Z,49.61
2022-08-22T05:04:25.955Z,49.60
2022-08-22T05:05:25.946Z,49.59
2022-08-22T05:06:25.998Z,49.56
2022-08-22T05:07:25.930Z,49.55
2022-08-22T05:08:25.909Z,49.53
2022-08-22T05:09:32.542Z,49.54
2022-08-22T05:10:25.868Z,49.50
2022-08-22T05:11:25.902Z,49.48
2022-08-22T05:12:25.927Z,49.47
2022-08-22T05:13:25.835Z,49.44
2022-08-22T05:14:25.954Z,49.42
2022-08-22T05:15:32.143Z,49.38
2022-08-22T05:16:25.822Z,49.36
2022-08-22T05:17:25.791Z,49.33
2022-08-22T05:18:29.712Z,49.31
2022-08-22T05:19:31.322Z,49.27
2022-08-22T05:20:27.264Z,49.26
2022-08-22T05:21:32.026Z,49.24
2022-08-22T05:22:25.730Z,49.21
2022-08-22T05:23:25.703Z,49.17
2022-08-22T05:24:28.012Z,49.16
2022-08-22T05:25:25.687Z,49.12
2022-08-22T05:26:25.685Z,49.11
2022-08-22T05:27:31.962Z,49.09
2022-08-22T05:28:25.694Z,49.08
2022-08-22T05:29:25.655Z,49.05
2022-08-22T05:30:25.626Z,49.02
2022-08-22T05:31:25.642Z,49.01
2022-08-22T05:32:31.938Z,49.00
2022-08-22T05:33:25.612Z,48.98
2022-08-22T05:34:25.674Z,48.95
2022-08-22T05:35:25.553Z,48.91
2022-08-22T05:36:25.581Z,48.88
2022-08-22T05:37:25.557Z,48.84
2022-08-22T05:38:32.093Z,48.80
2022-08-22T05:39:25.549Z,48.77
2022-08-22T05:40:25.506Z,48.74
2022-08-22T05:41:25.477Z,48.69
2022-08-22T05:42:25.568Z,48.65
2022-08-22T05:43:25.474Z,48.62
2022-08-22T05:44:31.731Z,48.57
2022-08-22T05:45:25.737Z,48.52
2022-08-22T05:46:26.849Z,48.48
2022-08-22T05:47:25.494Z,48.42
2022-08-22T05:48:25.398Z,48.34
2022-08-22T05:49:31.652Z,48.26
2022-08-22T05:50:25.503Z,48.16
2022-08-22T05:51:25.355Z,48.08
2022-08-22T05:52:25.382Z,47.99
2022-08-22T05:53:25.325Z,47.91
2022-08-22T05:54:34.301Z,47.83
2022-08-22T05:55:25.353Z,47.75
2022-08-22T05:56:25.651Z,47.67
2022-08-22T05:57:25.287Z,47.58
2022-08-22T05:58:25.276Z,47.50
2022-08-22T05:59:25.255Z,47.45
2022-08-22T06:00:31.530Z,47.37
2022-08-22T06:01:25.263Z,47.28
2022-08-22T06:02:25.219Z,47.23
2022-08-22T06:03:25.218Z,47.14
2022-08-22T06:04:25.224Z,47.08
2022-08-22T06:05:25.189Z,46.98
2022-08-22T06:06:31.535Z,46.90
2022-08-22T06:07:25.175Z,46.84
2022-08-22T06:08:26.384Z,46.77
2022-08-22T06:09:25.128Z,46.72
2022-08-22T06:10:26.620Z,46.65
2022-08-22T06:11:33.959Z,46.61
2022-08-22T06:12:25.087Z,46.54
2022-08-22T06:13:25.534Z,46.47
2022-08-22T06:14:25.077Z,46.42
2022-08-22T06:15:25.051Z,46.33
2022-08-22T06:16:31.323Z,46.25
2022-08-22T06:17:25.036Z,46.17
2022-08-22T06:18:25.023Z,46.12
2022-08-22T06:19:25.005Z,46.05
2022-08-22T06:20:24.985Z,45.98
2022-08-22T06:21:24.988Z,45.92
2022-08-22T06:22:31.293Z,45.87
2022-08-22T06:23:25.284Z,45.80
2022-08-22T06:24:24.966Z,45.75
2022-08-22T06:25:24.931Z,45.69
2022-08-22T06:26:24.925Z,45.63
2022-08-22T06:27:31.471Z,45.55
2022-08-22T06:28:24.895Z,45.48
2022-08-22T06:29:24.957Z,45.40
2022-08-22T06:30:24.869Z,45.31
2022-08-22T06:31:24.909Z,45.23
2022-08-22T06:32:58.330Z,45.17
2022-08-22T06:33:25.840Z,45.13
2022-08-22T06:34:24.823Z,45.09
2022-08-22T06:35:24.810Z,45.06
2022-08-22T06:36:24.866Z,45.03
2022-08-22T06:37:24.825Z,45.00
2022-08-22T06:38:31.095Z,44.97
2022-08-22T06:39:24.775Z,44.94
2022-08-22T06:40:24.795Z,44.90
2022-08-22T06:41:24.728Z,44.87
2022-08-22T06:42:25.067Z,44.85
2022-08-22T06:43:31.067Z,44.84
2022-08-22T06:44:24.688Z,44.83
2022-08-22T06:45:24.723Z,44.82
2022-08-22T06:46:24.677Z,44.82
2022-08-22T06:47:24.669Z,44.82
2022-08-22T06:48:24.630Z,44.83
2022-08-22T06:49:30.948Z,44.82
2022-08-22T06:50:24.661Z,44.82
2022-08-22T06:51:24.603Z,44.82
2022-08-22T06:52:24.627Z,44.81
2022-08-22T06:53:24.573Z,44.80
2022-08-22T06:54:24.635Z,44.79
2022-08-22T06:55:30.852Z,44.78
2022-08-22T06:56:24.531Z,44.78
2022-08-22T06:57:24.516Z,44.80
2022-08-22T06:58:25.464Z,44.82
2022-08-22T06:59:26.034Z,44.82
2022-08-22T07:00:24.475Z,44.81
2022-08-22T07:01:30.812Z,44.81
2022-08-22T07:02:24.468Z,44.79
2022-08-22T07:03:24.482Z,44.78
2022-08-22T07:04:24.442Z,44.77
2022-08-22T07:05:24.420Z,44.74
2022-08-22T07:06:24.429Z,44.71
2022-08-22T07:07:24.441Z,44.68
2022-08-22T07:08:25.312Z,44.67
2022-08-22T07:09:24.391Z,44.66
2022-08-22T07:10:24.380Z,44.64
2022-08-22T07:11:24.613Z,44.63
2022-08-22T07:12:24.397Z,44.61
2022-08-22T07:13:30.607Z,44.58
2022-08-22T07:14:24.311Z,44.53
2022-08-22T07:15:24.310Z,44.48
2022-08-22T07:16:24.319Z,44.44
2022-08-22T07:17:24.415Z,44.40
2022-08-22T07:18:30.541Z,44.41
2022-08-22T07:19:24.640Z,44.42
2022-08-22T07:20:24.351Z,44.40
2022-08-22T07:21:24.229Z,44.39
2022-08-22T07:22:24.221Z,44.40
2022-08-22T07:23:24.257Z,44.38
2022-08-22T07:24:30.512Z,44.35
2022-08-22T07:25:24.246Z,44.34
2022-08-22T07:26:24.159Z,44.34
2022-08-22T07:27:24.161Z,44.32
2022-08-22T07:28:36.704Z,44.29
2022-08-22T07:29:32.566Z,44.29
2022-08-22T07:30:28.113Z,44.27
2022-08-22T07:31:24.887Z,44.28
2022-08-22T07:32:24.084Z,44.27
2022-08-22T07:33:27.048Z,44.27
2022-08-22T07:34:24.081Z,44.26
2022-08-22T07:35:30.603Z,44.28
2022-08-22T07:36:26.457Z,44.26
2022-08-22T07:37:24.049Z,44.26
2022-08-22T07:38:24.027Z,44.27
2022-08-22T07:39:23.980Z,44.28
2022-08-22T07:40:24.296Z,44.29
2022-08-22T07:41:30.344Z,44.27
2022-08-22T07:42:29.732Z,44.28
2022-08-22T07:43:24.930Z,44.25
2022-08-22T07:44:23.917Z,44.25
2022-08-22T07:45:23.923Z,44.23
2022-08-22T07:46:30.202Z,44.19
2022-08-22T07:47:26.394Z,44.19
2022-08-22T07:48:26.213Z,44.18
2022-08-22T07:49:23.850Z,44.15
2022-08-22T07:50:24.904Z,44.10
2022-08-22T07:51:30.111Z,44.07
2022-08-22T07:52:23.848Z,44.07
2022-08-22T07:53:23.841Z,44.06
2022-08-22T07:54:27.214Z,44.06
2022-08-22T07:55:23.784Z,44.09
2022-08-22T07:56:30.077Z,44.08
2022-08-22T07:57:23.810Z,44.03
2022-08-22T07:58:24.721Z,44.00
2022-08-22T07:59:23.998Z,43.97
2022-08-22T08:00:23.852Z,43.95
2022-08-22T08:01:30.056Z,43.93
2022-08-22T08:02:24.065Z,43.94
2022-08-22T08:03:23.667Z,43.93
2022-08-22T08:04:23.677Z,43.89
2022-08-22T08:05:23.676Z,43.86
2022-08-22T08:06:23.745Z,43.83
2022-08-22T08:07:55.472Z,43.80
2022-08-22T08:09:18.723Z,43.12
2022-08-22T08:10:53.331Z,43.80
2022-08-22T08:11:42.777Z,43.81
2022-08-22T08:13:39.752Z,43.18
2022-08-22T08:15:22.998Z,43.83
2022-08-22T08:15:43.064Z,43.88
2022-08-22T08:17:21.786Z,43.90
2022-08-22T08:17:40.634Z,43.90
2022-08-22T08:19:04.118Z,43.87
2022-08-22T08:20:18.416Z,43.87
2022-08-22T08:20:40.705Z,43.84
2022-08-22T08:22:21.231Z,43.80
2022-08-22T08:22:39.321Z,43.79
2022-08-22T08:24:47.818Z,43.12
2022-08-22T08:26:27.431Z,43.73
2022-08-22T08:26:55.670Z,43.71
2022-08-22T08:28:35.900Z,43.05
2022-08-22T08:30:40.692Z,43.01
2022-08-22T08:32:24.141Z,43.62
2022-08-22T08:32:42.264Z,43.59
2022-08-22T08:34:22.194Z,43.55
2022-08-22T08:34:42.599Z,43.52
2022-08-22T08:36:52.609Z,42.87
2022-08-22T08:38:17.731Z,43.52
2022-08-22T08:39:35.004Z,43.50
2022-08-22T08:39:49.891Z,43.52
2022-08-22T08:41:25.842Z,43.55
2022-08-22T08:42:29.444Z,43.56
2022-08-22T08:42:47.196Z,43.55
2022-08-22T08:44:18.961Z,43.53
2022-08-22T08:45:24.416Z,43.50
2022-08-22T08:46:27.352Z,43.50
2022-08-22T08:46:55.378Z,43.47
2022-08-22T08:48:33.276Z,43.45
2022-08-22T08:48:52.273Z,43.42
2022-08-22T08:50:25.101Z,43.38
2022-08-22T08:51:23.511Z,43.35
2022-08-22T08:52:00.234Z,43.32
2022-08-22T08:53:25.149Z,43.30
2022-08-22T08:54:13.556Z,43.28
2022-08-22T08:55:22.887Z,43.27
2022-08-22T08:55:48.144Z,43.26
2022-08-22T08:57:53.854Z,42.58
2022-08-22T08:59:34.391Z,43.22
2022-08-22T08:59:52.824Z,43.17
2022-08-22T09:00:51.332Z,43.12
2022-08-22T09:01:51.355Z,43.09
2022-08-22T09:02:51.391Z,43.04
2022-08-22T09:03:51.506Z,43.00
2022-08-22T09:04:52.305Z,42.95
2022-08-22T09:05:51.532Z,42.93
2022-08-22T09:06:56.592Z,42.91
2022-08-22T09:07:59.215Z,42.88
2022-08-22T09:08:55.506Z,42.89
2022-08-22T09:09:52.265Z,42.90
2022-08-22T09:10:51.198Z,42.88
2022-08-22T09:11:51.204Z,42.88
2022-08-22T09:13:11.834Z,42.85
2022-08-22T09:13:52.685Z,42.83
2022-08-22T09:14:51.245Z,42.84
2022-08-22T09:15:58.663Z,42.90
2022-08-22T09:16:52.659Z,42.91
2022-08-22T09:17:51.171Z,42.89
2022-08-22T09:18:57.507Z,42.87
2022-08-22T09:19:51.116Z,42.87
2022-08-22T09:20:51.906Z,42.85
2022-08-22T09:21:51.067Z,42.85
2022-08-22T09:22:51.086Z,42.85
2022-08-22T09:23:53.389Z,42.81
2022-08-22T09:24:57.701Z,42.80
2022-08-22T09:25:51.023Z,42.81
2022-08-22T09:26:51.053Z,42.83
2022-08-22T09:27:50.995Z,42.86
2022-08-22T09:28:50.985Z,42.86
2022-08-22T09:29:59.683Z,42.85
2022-08-22T09:30:54.293Z,42.83
2022-08-22T09:31:52.139Z,42.81
2022-08-22T09:32:50.959Z,42.78
2022-08-22T09:33:51.779Z,42.75
2022-08-22T09:34:50.900Z,42.73
2022-08-22T09:35:57.200Z,42.71
2022-08-22T09:36:50.920Z,42.72
2022-08-22T09:37:50.948Z,42.71
2022-08-22T09:38:50.849Z,42.70
2022-08-22T09:39:50.909Z,42.70
2022-08-22T09:40:50.846Z,42.69
2022-08-22T09:41:57.528Z,42.70
2022-08-22T09:42:50.849Z,42.68
2022-08-22T09:43:51.048Z,42.67
2022-08-22T09:44:50.801Z,42.67
2022-08-22T09:45:50.787Z,42.66
2022-08-22T09:46:57.007Z,42.65
2022-08-22T09:47:50.717Z,42.66
2022-08-22T09:48:50.735Z,42.67
2022-08-22T09:49:50.926Z,42.67
2022-08-22T09:50:52.761Z,42.67
2022-08-22T09:51:57.050Z,42.67
2022-08-22T09:52:50.649Z,42.65
2022-08-22T09:53:50.680Z,42.64
2022-08-22T09:54:50.665Z,42.64
2022-08-22T09:55:50.627Z,42.60
2022-08-22T09:56:56.903Z,42.61
2022-08-22T09:57:50.606Z,42.62
2022-08-22T09:58:50.932Z,42.63
2022-08-22T09:59:50.565Z,42.64
2022-08-22T10:00:54.578Z,42.62
2022-08-22T10:01:50.568Z,42.65
2022-08-22T10:02:57.133Z,42.67
2022-08-22T10:03:50.567Z,42.68
2022-08-22T10:04:50.532Z,42.74
2022-08-22T10:05:50.520Z,42.74
2022-08-22T10:06:50.472Z,42.75
2022-08-22T10:07:56.872Z,42.78
2022-08-22T10:08:50.457Z,42.80
2022-08-22T10:09:54.936Z,42.82
2022-08-22T10:10:52.240Z,42.86
2022-08-22T10:11:51.411Z,42.86
2022-08-22T10:12:50.441Z,42.87
2022-08-22T10:14:00.617Z,42.85
2022-08-22T10:14:50.659Z,42.85
2022-08-22T10:15:50.388Z,42.81
2022-08-22T10:16:50.434Z,42.78
2022-08-22T10:17:50.382Z,42.80
2022-08-22T10:19:00.546Z,42.79
2022-08-22T10:19:50.311Z,42.79
2022-08-22T10:20:50.322Z,42.79
2022-08-22T10:21:50.546Z,42.83
2022-08-22T10:22:50.263Z,42.83
2022-08-22T10:23:50.266Z,42.81
2022-08-22T10:24:56.586Z,42.79
2022-08-22T10:25:50.248Z,42.84
2022-08-22T10:26:50.256Z,42.88
2022-08-22T10:27:50.502Z,42.90
2022-08-22T10:28:50.225Z,42.93
2022-08-22T10:29:57.471Z,43.01
2022-08-22T10:30:50.164Z,43.13
2022-08-22T10:31:59.091Z,43.21
2022-08-22T10:32:51.646Z,43.26
2022-08-22T10:33:50.145Z,43.29
2022-08-22T10:34:50.117Z,43.31
2022-08-22T10:35:56.367Z,43.33
2022-08-22T10:36:50.109Z,43.39
2022-08-22T10:37:50.367Z,43.43
2022-08-22T10:38:50.069Z,43.48
2022-08-22T10:39:50.155Z,43.50
2022-08-22T10:40:50.079Z,43.55
2022-08-22T10:41:56.326Z,43.55
2022-08-22T10:42:50.307Z,43.55
2022-08-22T10:44:00.936Z,43.56
2022-08-22T10:44:51.519Z,43.52
2022-08-22T10:45:49.983Z,43.52
2022-08-22T10:46:49.986Z,43.52
2022-08-22T10:47:56.299Z,43.58
2022-08-22T10:48:49.918Z,43.63
2022-08-22T10:49:51.258Z,43.68
2022-08-22T10:50:50.868Z,43.76
2022-08-22T10:51:50.248Z,43.78
2022-08-22T10:52:56.329Z,43.77
2022-08-22T10:53:49.886Z,43.79
2022-08-22T10:54:49.869Z,43.78
2022-08-22T10:55:49.899Z,43.80
2022-08-22T10:56:49.848Z,43.78
2022-08-22T10:57:52.819Z,43.79
2022-08-22T10:58:56.165Z,43.82
2022-08-22T10:59:49.800Z,43.85
2022-08-22T11:00:50.349Z,43.89
2022-08-22T11:01:49.855Z,43.90
2022-08-22T11:02:49.776Z,43.91
2022-08-22T11:03:49.738Z,43.83
2022-08-22T11:04:56.091Z,43.70
2022-08-22T11:05:50.742Z,43.58
2022-08-22T11:06:49.734Z,43.51
2022-08-22T11:07:50.242Z,43.45
2022-08-22T11:08:49.745Z,43.36
2022-08-22T11:09:49.697Z,43.25
2022-08-22T11:10:55.955Z,43.14
2022-08-22T11:11:49.717Z,43.07
2022-08-22T11:12:49.700Z,43.03
2022-08-22T11:13:49.632Z,43.01
2022-08-22T11:14:49.617Z,43.03
2022-08-22T11:15:55.880Z,43.07
2022-08-22T11:16:55.009Z,43.09
2022-08-22T11:17:54.155Z,43.08
2022-08-22T11:19:01.820Z,43.07
2022-08-22T11:19:51.154Z,43.12
2022-08-22T11:20:49.530Z,43.21
2022-08-22T11:21:55.820Z,43.31
2022-08-22T11:22:49.824Z,43.39
2022-08-22T11:23:50.989Z,43.48
2022-08-22T11:24:55.743Z,43.61
2022-08-22T11:25:52.593Z,43.74
2022-08-22T11:26:49.475Z,43.86
2022-08-22T11:27:55.770Z,44.00
2022-08-22T11:28:50.756Z,44.16
2022-08-22T11:29:49.400Z,44.30
2022-08-22T11:30:50.356Z,44.45
2022-08-22T11:31:51.974Z,44.56
2022-08-22T11:32:49.523Z,44.63
2022-08-22T11:33:55.675Z,44.71
2022-08-22T11:34:49.345Z,44.74
2022-08-22T11:35:49.327Z,44.74
2022-08-22T11:36:50.181Z,44.74
2022-08-22T11:37:54.924Z,44.67
2022-08-22T11:38:49.315Z,44.61
2022-08-22T11:39:55.679Z,44.61
2022-08-22T11:40:49.306Z,44.63
2022-08-22T11:41:52.270Z,44.61
2022-08-22T11:42:49.227Z,44.60
2022-08-22T11:43:49.257Z,44.60
2022-08-22T11:44:50.481Z,44.60
2022-08-22T11:45:55.484Z,44.62
2022-08-22T11:46:49.526Z,44.58
2022-08-22T11:47:49.159Z,44.51
2022-08-22T11:48:49.155Z,44.39
2022-08-22T11:49:50.121Z,44.21
2022-08-22T11:50:56.343Z,44.06
2022-08-22T11:51:49.498Z,43.91
2022-08-22T11:52:51.647Z,43.76
2022-08-22T11:53:49.136Z,43.62
2022-08-22T11:54:49.863Z,43.55
2022-08-22T11:55:49.070Z,43.46
2022-08-22T11:56:56.230Z,43.41
2022-08-22T11:57:49.056Z,43.38
2022-08-22T11:58:49.077Z,43.37
2022-08-22T11:59:49.995Z,43.35
2022-08-22T12:00:48.989Z,43.30
2022-08-22T12:01:49.085Z,43.22
2022-08-22T12:02:55.276Z,43.12
2022-08-22T12:03:55.637Z,43.04
2022-08-22T12:04:50.496Z,42.97
2022-08-22T12:05:48.963Z,42.95
2022-08-22T12:06:49.718Z,42.97
2022-08-22T12:07:49.253Z,42.99
2022-08-22T12:08:55.246Z,43.01
2022-08-22T12:09:49.195Z,43.01
2022-08-22T12:10:49.205Z,43.02
2022-08-22T12:11:48.870Z,43.03
2022-08-22T12:12:48.872Z,43.00
2022-08-22T12:13:48.831Z,42.96
2022-08-22T12:14:55.222Z,42.92
2022-08-22T12:15:48.997Z,42.88
2022-08-22T12:16:50.355Z,42.81
2022-08-22T12:17:55.766Z,42.68
2022-08-22T12:18:52.717Z,42.60
2022-08-22T12:20:14.973Z,42.55
2022-08-22T12:20:52.243Z,42.52
2022-08-22T12:21:49.570Z,42.51
2022-08-22T12:22:49.804Z,42.48
2022-08-22T12:23:50.314Z,42.46
2022-08-22T12:24:48.735Z,42.46
2022-08-22T12:25:55.314Z,42.51
2022-08-22T12:26:48.671Z,42.53
2022-08-22T12:27:54.108Z,42.66
2022-08-22T12:28:50.140Z,42.80
2022-08-22T12:29:49.459Z,42.95
2022-08-22T12:30:48.928Z,43.04
2022-08-22T12:31:56.483Z,43.08
2022-08-22T12:32:57.701Z,43.10
2022-08-22T12:33:50.441Z,43.12
2022-08-22T12:34:48.603Z,43.11
2022-08-22T12:35:48.551Z,43.09
2022-08-22T12:36:54.872Z,43.04
2022-08-22T12:37:53.063Z,42.96
2022-08-22T12:38:48.499Z,42.89
2022-08-22T12:39:48.562Z,42.84
2022-08-22T12:40:48.604Z,42.79
2022-08-22T12:41:48.492Z,42.75
2022-08-22T12:42:56.460Z,42.69
2022-08-22T12:43:49.477Z,42.67
2022-08-22T12:44:48.444Z,42.62
2022-08-22T12:45:50.890Z,42.55
2022-08-22T12:46:48.413Z,42.47
2022-08-22T12:48:16.105Z,42.37
2022-08-22T12:49:32.458Z,42.27
2022-08-22T12:49:52.324Z,42.19
2022-08-22T12:51:18.437Z,42.13
2022-08-22T12:52:14.030Z,42.07
2022-08-22T12:52:49.531Z,42.03